createdAt,value
2019-03-24T00:00:24.736Z,102377.42
2019-03-24T00:02:54.981Z,102386.49
2019-03-24T00:05:25.145Z,102373.25
2019-03-24T00:07:56.902Z,102371.05
2019-03-24T00:10:27.064Z,102371.05
2019-03-24T00:12:57.481Z,102382.66
2019-03-24T00:15:27.688Z,102382.66
2019-03-24T00:17:57.939Z,102393.02
2019-03-24T00:20:28.100Z,102394.31
2019-03-24T00:22:58.166Z,102393.02
2019-03-24T00:25:28.398Z,102385.95
2019-03-24T00:27:58.906Z,102387.23
2019-03-24T00:30:29.034Z,102388.19
2019-03-24T00:32:59.136Z,102388.19
2019-03-24T00:35:29.241Z,102389.13
2019-03-24T00:37:59.301Z,102389.25
2019-03-24T00:40:29.372Z,102387.34
2019-03-24T00:42:59.690Z,102380.47
2019-03-24T00:45:36.840Z,102373.45
2019-03-24T00:48:01.699Z,102364.42
2019-03-24T00:50:31.904Z,102364.42
2019-03-24T00:53:02.049Z,102368.09
2019-03-24T00:55:32.187Z,102358.34
2019-03-24T00:58:03.018Z,102362.05
2019-03-24T01:00:57.706Z,102351.95
2019-03-24T01:03:27.829Z,102359.43
2019-03-24T01:05:57.865Z,102359.43
2019-03-24T01:08:27.936Z,102364.12
2019-03-24T01:10:58.043Z,102372.14
2019-03-24T01:13:28.194Z,102372.14
2019-03-24T01:15:58.315Z,102377.60
2019-03-24T01:18:28.396Z,102372.33
2019-03-24T01:20:58.609Z,102379.63
2019-03-24T01:23:28.850Z,102379.63
2019-03-24T01:25:58.867Z,102369.51
2019-03-24T01:28:29.167Z,102369.88
2019-03-24T01:30:59.307Z,102375.64
2019-03-24T01:33:29.403Z,102378.79
2019-03-24T01:35:59.493Z,102378.79
2019-03-24T01:38:29.466Z,102371.05
2019-03-24T01:40:59.565Z,102367.25
2019-03-24T01:43:30.254Z,102360.84
2019-03-24T01:46:00.301Z,102360.84
2019-03-24T01:48:30.475Z,102352.96
2019-03-24T01:51:00.483Z,102354.19
2019-03-24T01:53:30.711Z,102354.19
2019-03-24T01:56:00.894Z,102354.55
2019-03-24T01:58:31.518Z,102349.33
2019-03-24T02:01:01.745Z,102351.98
2019-03-24T02:03:31.838Z,102352.42
2019-03-24T02:06:01.857Z,102358.96
2019-03-24T02:08:31.959Z,102358.96
2019-03-24T02:11:02.220Z,102379.31
2019-03-24T02:13:33.007Z,102379.31
2019-03-24T02:16:09.330Z,102374.69
2019-03-24T02:18:34.899Z,102380.09
2019-03-24T02:21:04.959Z,102380.09
2019-03-24T02:23:35.092Z,102381.80
2019-03-24T02:26:05.145Z,102371.34
2019-03-24T02:28:35.324Z,102371.90
2019-03-24T02:31:05.481Z,102364.52
2019-03-24T02:33:35.671Z,102360.84
2019-03-24T02:36:05.824Z,102357.98
2019-03-24T02:38:35.927Z,102349.33
2019-03-24T02:41:06.000Z,102363.29
2019-03-24T02:43:36.424Z,102363.29
2019-03-24T02:46:06.434Z,102357.03
2019-03-24T02:48:36.604Z,102353.89
2019-03-24T02:51:06.621Z,102339.64
2019-03-24T02:53:36.731Z,102338.03
2019-03-24T02:56:06.896Z,102345.52
2019-03-24T02:58:37.532Z,102353.97
2019-03-24T03:01:07.611Z,102353.97
2019-03-24T03:03:37.646Z,102351.59
2019-03-24T03:06:07.816Z,102353.58
2019-03-24T03:08:37.880Z,102345.38
2019-03-24T03:11:08.093Z,102345.38
2019-03-24T03:13:38.397Z,102332.09
2019-03-24T03:16:08.434Z,102330.56
2019-03-24T03:18:38.499Z,102331.28
2019-03-24T03:21:08.581Z,102333.53
2019-03-24T03:23:38.591Z,102350.52
2019-03-24T03:26:08.569Z,102338.39
2019-03-24T03:28:38.850Z,102334.00
2019-03-24T03:31:08.973Z,102334.00
2019-03-24T03:33:39.134Z,102335.67
2019-03-24T03:36:09.185Z,102328.77
2019-03-24T03:38:39.222Z,102329.62
2019-03-24T03:41:09.219Z,102334.88
2019-03-24T03:43:39.755Z,102330.56
2019-03-24T03:46:09.803Z,102333.39
2019-03-24T03:48:39.897Z,102344.82
2019-03-24T03:51:09.912Z,102352.53
2019-03-24T03:53:40.028Z,102346.45
2019-03-24T03:56:10.199Z,102350.99
2019-03-24T03:58:40.597Z,102343.52
2019-03-24T04:01:10.622Z,102344.14
2019-03-24T04:03:40.669Z,102340.88
2019-03-24T04:06:10.694Z,102330.21
2019-03-24T04:08:40.806Z,102330.21
2019-03-24T04:11:10.967Z,102322.30
2019-03-24T04:13:41.233Z,102328.18
2019-03-24T04:16:11.323Z,102326.52
2019-03-24T04:18:41.437Z,102325.20
2019-03-24T04:21:11.659Z,102315.23
2019-03-24T04:23:41.781Z,102315.23
2019-03-24T04:26:11.807Z,102320.59
2019-03-24T04:28:42.119Z,102312.75
2019-03-24T04:31:12.093Z,102308.94
2019-03-24T04:33:42.074Z,102308.94
2019-03-24T04:36:12.079Z,102284.16
2019-03-24T04:38:42.154Z,102284.16
2019-03-24T04:41:12.813Z,102279.83
2019-03-24T04:43:42.954Z,102280.78
2019-03-24T04:46:13.053Z,102283.27
2019-03-24T04:48:43.106Z,102283.27
2019-03-24T04:51:13.365Z,102275.42
2019-03-24T04:53:43.428Z,102272.81
2019-03-24T04:56:13.468Z,102267.01
2019-03-24T04:58:43.592Z,102270.92
2019-03-24T05:01:13.681Z,102274.48
2019-03-24T05:03:43.725Z,102270.20
2019-03-24T05:06:14.044Z,102275.34
2019-03-24T05:08:44.934Z,102273.66
2019-03-24T05:11:15.006Z,102274.61
2019-03-24T05:13:45.583Z,102274.61
2019-03-24T05:16:15.707Z,102260.23
2019-03-24T05:18:45.772Z,102267.50
2019-03-24T05:21:16.081Z,102267.50
2019-03-24T05:23:46.226Z,102274.61
2019-03-24T05:26:16.264Z,102274.61
2019-03-24T05:28:46.402Z,102262.36
2019-03-24T05:31:16.562Z,102265.46
2019-03-24T05:33:46.625Z,102274.13
2019-03-24T05:36:16.810Z,102277.22
2019-03-24T05:38:46.858Z,102277.22
2019-03-24T05:41:16.999Z,102284.45
2019-03-24T05:43:47.396Z,102283.39
2019-03-24T05:46:17.791Z,102104.77
2019-03-24T05:48:48.121Z,102298.61
2019-03-24T05:51:18.332Z,102304.54
2019-03-24T05:53:48.539Z,102305.12
2019-03-24T05:56:18.559Z,102298.70
2019-03-24T05:58:48.983Z,102292.87
2019-03-24T06:01:21.865Z,102295.84
2019-03-24T06:03:52.027Z,102295.00
2019-03-24T06:06:22.118Z,102295.00
2019-03-24T06:08:52.104Z,102287.76
2019-03-24T06:11:22.217Z,102287.02
2019-03-24T06:13:52.407Z,102288.81
2019-03-24T06:16:22.519Z,102288.81
2019-03-24T06:18:52.678Z,102277.42
2019-03-24T06:21:22.802Z,102278.36
2019-03-24T06:23:52.835Z,102277.50
2019-03-24T06:26:22.910Z,102277.50
2019-03-24T06:28:53.060Z,102288.94
2019-03-24T06:31:22.993Z,102288.94
2019-03-24T06:33:52.998Z,102275.95
2019-03-24T06:36:23.073Z,102279.17
2019-03-24T06:38:53.213Z,102276.02
2019-03-24T06:41:23.191Z,102268.34
2019-03-24T06:43:53.588Z,102268.34
2019-03-24T06:46:23.774Z,102270.63
2019-03-24T06:48:53.985Z,102268.98
2019-03-24T06:51:26.017Z,102268.98
2019-03-24T06:53:56.539Z,102266.52
2019-03-24T06:56:26.565Z,102258.70
2019-03-24T06:58:56.829Z,102260.80
2019-03-24T07:01:26.977Z,102257.64
2019-03-24T07:03:57.168Z,102260.37
2019-03-24T07:06:27.287Z,102260.37
2019-03-24T07:08:57.735Z,102257.39
2019-03-24T07:11:28.116Z,102254.66
2019-03-24T07:13:58.142Z,102248.79
2019-03-24T07:16:28.236Z,102248.79
2019-03-24T07:18:58.292Z,102258.88
2019-03-24T07:21:28.407Z,102244.89
2019-03-24T07:24:00.526Z,102065.27
2019-03-24T07:26:30.340Z,102243.55
2019-03-24T07:29:01.027Z,102246.92
2019-03-24T07:31:31.133Z,102238.55
2019-03-24T07:34:01.202Z,102242.66
2019-03-24T07:36:31.253Z,102230.88
2019-03-24T07:39:01.373Z,102238.02
2019-03-24T07:41:31.486Z,102238.02
2019-03-24T07:44:02.160Z,102231.11
2019-03-24T07:46:32.157Z,102231.11
2019-03-24T07:49:02.256Z,102238.09
2019-03-24T07:51:32.637Z,102227.08
2019-03-24T07:54:04.284Z,102225.00
2019-03-24T07:56:34.306Z,102222.59
2019-03-24T07:59:04.662Z,102230.70
2019-03-24T08:01:34.872Z,102225.64
2019-03-24T08:04:06.016Z,102226.50
2019-03-24T08:06:36.213Z,102217.79
2019-03-24T08:09:07.478Z,102214.74
2019-03-24T08:11:37.504Z,102211.38
2019-03-24T08:14:07.838Z,102210.55
2019-03-24T08:16:37.977Z,102211.64
2019-03-24T08:19:08.037Z,102195.22
2019-03-24T08:21:38.118Z,102204.11
2019-03-24T08:24:08.372Z,102208.31
2019-03-24T08:26:38.431Z,102208.31
2019-03-24T08:29:08.741Z,102204.01
2019-03-24T08:31:39.045Z,102191.05
2019-03-24T08:34:09.053Z,102185.41
2019-03-24T08:36:39.067Z,102189.16
2019-03-24T08:39:09.162Z,102197.53
2019-03-24T08:41:39.360Z,102187.36
2019-03-24T08:44:09.904Z,102192.70
2019-03-24T08:46:39.989Z,102183.53
2019-03-24T08:49:10.125Z,102182.33
2019-03-24T08:51:40.372Z,102170.45
2019-03-24T08:54:10.738Z,102170.62
2019-03-24T08:56:40.859Z,102170.62
2019-03-24T08:59:11.221Z,102160.30
2019-03-24T09:01:41.345Z,102165.44
2019-03-24T09:04:11.332Z,102174.09
2019-03-24T09:06:41.763Z,102167.61
2019-03-24T09:09:11.936Z,102166.06
2019-03-24T09:11:41.982Z,102165.74
2019-03-24T09:14:12.180Z,102174.70
2019-03-24T09:16:43.275Z,102160.91
2019-03-24T09:19:13.608Z,102172.35
2019-03-24T09:21:43.704Z,102171.12
2019-03-24T09:24:13.718Z,102167.22
2019-03-24T09:26:43.912Z,102150.12
2019-03-24T09:29:14.312Z,102156.70
2019-03-24T09:31:44.393Z,102144.39
2019-03-24T09:34:14.558Z,102136.94
2019-03-24T09:36:44.774Z,102141.11
2019-03-24T09:39:14.894Z,102131.34
2019-03-24T09:41:45.047Z,102133.19
2019-03-24T09:44:15.723Z,102137.51
2019-03-24T09:46:45.756Z,102128.23
2019-03-24T09:49:15.891Z,102134.91
2019-03-24T09:51:46.071Z,102124.51
2019-03-24T09:54:16.232Z,102126.94
2019-03-24T09:56:46.554Z,102117.26
2019-03-24T09:59:16.600Z,102120.19
2019-03-24T10:01:46.899Z,102105.20
2019-03-24T10:04:17.142Z,102126.20
2019-03-24T10:06:47.324Z,102113.69
2019-03-24T10:09:17.388Z,102108.66
2019-03-24T10:11:49.123Z,102112.41
2019-03-24T10:14:19.691Z,102105.22
2019-03-24T10:16:50.598Z,102110.68
2019-03-24T10:19:21.105Z,102103.05
2019-03-24T10:21:53.014Z,102106.67
2019-03-24T10:24:23.109Z,102107.38
2019-03-24T10:26:53.532Z,102100.36
2019-03-24T10:29:23.835Z,102093.02
2019-03-24T10:31:54.221Z,102089.61
2019-03-24T10:34:24.981Z,102088.59
2019-03-24T10:36:55.291Z,102084.16
2019-03-24T10:39:26.429Z,102078.92
2019-03-24T10:41:56.810Z,102071.19
2019-03-24T10:44:27.829Z,102070.69
2019-03-24T10:46:58.036Z,102062.66
2019-03-24T10:49:28.390Z,102059.96
2019-03-24T10:51:58.619Z,102056.17
2019-03-24T10:54:28.630Z,102038.42
2019-03-24T10:56:58.756Z,102047.37
2019-03-24T10:59:29.005Z,102032.67
2019-03-24T11:01:59.370Z,102042.84
2019-03-24T11:04:31.470Z,102039.16
2019-03-24T11:07:01.589Z,102028.66
2019-03-24T11:09:31.640Z,102024.36
2019-03-24T11:12:01.733Z,102012.20
2019-03-24T11:14:31.685Z,102011.62
2019-03-24T11:17:01.750Z,102000.88
2019-03-24T11:19:35.890Z,101994.94
2019-03-24T11:22:03.865Z,101995.75
2019-03-24T11:24:33.968Z,101996.17
2019-03-24T11:27:04.191Z,101998.51
2019-03-24T11:29:34.419Z,101992.23
2019-03-24T11:32:04.779Z,101991.88
2019-03-24T11:34:34.876Z,101979.52
2019-03-24T11:37:04.934Z,101982.02
2019-03-24T11:39:35.331Z,101994.84
2019-03-24T11:42:05.653Z,101969.94
2019-03-24T11:44:36.265Z,101973.02
2019-03-24T11:47:06.383Z,101959.25
2019-03-24T11:49:45.755Z,101960.86
2019-03-24T11:52:08.322Z,101957.44
2019-03-24T11:54:38.516Z,101949.49
2019-03-24T11:57:08.553Z,101948.47
2019-03-24T11:59:38.690Z,101940.49
2019-03-24T12:02:08.850Z,101938.42
2019-03-24T12:04:38.999Z,101937.47
2019-03-24T12:07:09.175Z,101926.59
2019-03-24T12:09:39.548Z,101923.38
2019-03-24T12:18:53.491Z,101886.33
2019-03-24T12:21:23.597Z,101886.33
2019-03-24T12:23:54.020Z,101896.24
2019-03-24T12:26:24.157Z,101894.34
2019-03-24T12:28:54.338Z,101887.73
2019-03-24T12:31:24.563Z,101878.89
2019-03-24T12:33:54.560Z,101875.62
2019-03-24T12:36:24.853Z,101873.49
2019-03-24T12:38:55.066Z,101860.21
2019-03-24T12:41:25.108Z,101850.93
2019-03-24T12:43:55.222Z,101850.93
2019-03-24T12:46:25.518Z,101840.71
2019-03-24T12:48:55.554Z,101842.31
2019-03-24T12:51:25.651Z,101842.31
2019-03-24T12:53:55.690Z,101829.53
2019-03-24T12:56:25.964Z,101830.56
2019-03-24T12:58:56.295Z,101819.40
2019-03-24T13:01:26.601Z,101815.81
2019-03-24T13:03:56.848Z,101814.93
2019-03-24T13:06:27.227Z,101811.11
2019-03-24T13:08:57.637Z,101810.70
2019-03-24T13:11:27.945Z,101807.46
2019-03-24T13:13:58.153Z,101623.97
2019-03-24T13:16:28.255Z,101788.89
2019-03-24T13:18:58.279Z,101785.77
2019-03-24T13:21:28.605Z,101784.66
2019-03-24T13:23:58.663Z,101783.57
2019-03-24T13:26:28.722Z,101767.86
2019-03-24T13:28:58.893Z,101753.47
2019-03-24T13:31:29.353Z,101758.96
2019-03-24T13:33:59.859Z,101741.75
2019-03-24T13:36:30.462Z,101747.48
2019-03-24T13:39:00.510Z,101739.95
2019-03-24T13:41:30.682Z,101730.34
2019-03-24T13:44:01.001Z,101730.34
2019-03-24T13:46:31.478Z,101722.69
2019-03-24T13:49:01.836Z,101724.58
2019-03-24T13:51:32.279Z,101712.89
2019-03-24T13:54:02.733Z,101712.33
2019-03-24T13:56:32.967Z,101703.50
2019-03-24T13:59:03.223Z,101707.03
2019-03-24T14:01:33.858Z,101699.48
2019-03-24T14:04:04.298Z,101717.24
2019-03-24T14:06:34.781Z,101713.98
2019-03-24T14:09:07.500Z,101714.86
2019-03-24T14:11:37.837Z,101706.89
2019-03-24T14:14:08.200Z,101697.78
2019-03-24T14:16:38.340Z,101692.91
2019-03-24T14:19:08.616Z,101688.47
2019-03-24T14:21:38.792Z,101675.04
2019-03-24T14:24:08.998Z,101675.26
2019-03-24T14:26:39.013Z,101663.59
2019-03-24T14:29:09.090Z,101668.31
2019-03-24T14:31:39.220Z,101640.47
2019-03-24T14:34:09.318Z,101646.72
2019-03-24T14:36:39.482Z,101645.72
2019-03-24T14:39:09.881Z,101645.72
2019-03-24T14:41:40.178Z,101642.68
2019-03-24T14:44:11.307Z,101633.93
2019-03-24T14:46:41.693Z,101623.63
2019-03-24T14:49:11.897Z,101618.38
2019-03-24T14:51:42.229Z,101618.38
2019-03-24T14:54:12.505Z,101622.31
2019-03-24T14:56:43.027Z,101613.05
2019-03-24T14:59:13.054Z,101608.21
2019-03-24T15:01:43.423Z,101596.35
2019-03-24T15:04:13.550Z,101590.34
2019-03-24T15:06:43.821Z,101593.46
2019-03-24T15:09:13.909Z,101598.47
2019-03-24T15:11:44.124Z,101585.44
2019-03-24T15:14:14.126Z,101532.83
2019-03-24T15:16:44.594Z,101575.11
2019-03-24T15:19:14.980Z,101570.28
2019-03-24T15:21:45.277Z,101559.26
2019-03-24T15:24:15.363Z,101564.97
2019-03-24T15:26:45.800Z,101553.66
2019-03-24T15:29:15.882Z,101553.66
2019-03-24T15:31:46.128Z,101546.81
2019-03-24T15:34:16.277Z,101542.81
2019-03-24T15:36:46.420Z,101547.66
2019-03-24T15:39:16.616Z,101533.56
2019-03-24T15:41:46.794Z,101529.22
2019-03-24T15:44:16.853Z,101520.45
2019-03-24T15:46:47.360Z,101519.75
2019-03-24T15:49:17.573Z,101511.88
2019-03-24T15:51:47.913Z,101511.88
2019-03-24T15:54:18.090Z,101497.64
2019-03-24T15:56:48.206Z,101497.64
2019-03-24T15:59:18.514Z,101507.20
2019-03-24T16:01:48.902Z,101487.86
2019-03-24T16:04:19.136Z,101487.86
2019-03-24T16:06:49.337Z,101477.48
2019-03-24T16:09:19.573Z,101474.75
2019-03-24T16:11:49.914Z,101473.33
2019-03-24T16:14:20.098Z,101476.28
2019-03-24T16:16:50.255Z,101478.00
2019-03-24T16:19:20.506Z,101466.55
2019-03-24T16:21:50.662Z,101465.93
2019-03-24T16:24:20.842Z,101466.21
2019-03-24T16:26:51.488Z,101459.72
2019-03-24T16:29:21.941Z,101462.97
2019-03-24T16:31:52.444Z,101457.72
2019-03-24T16:34:22.558Z,101446.72
2019-03-24T16:36:52.809Z,101445.59
2019-03-24T16:39:22.959Z,101449.33
2019-03-24T16:41:53.244Z,101428.00
2019-03-24T16:44:23.720Z,101427.95
2019-03-24T16:46:54.440Z,101428.78
2019-03-24T16:49:24.721Z,101416.44
2019-03-24T16:51:54.868Z,101419.08
2019-03-24T16:54:25.291Z,101409.39
2019-03-24T16:56:55.860Z,101400.25
2019-03-24T16:59:26.277Z,101402.44
2019-03-24T17:01:56.800Z,101410.09
2019-03-24T17:04:27.002Z,101410.09
2019-03-24T17:06:57.201Z,101419.98
2019-03-24T17:09:27.460Z,101408.89
2019-03-24T17:11:57.513Z,101408.89
2019-03-24T17:14:27.656Z,101401.95
2019-03-24T17:16:58.182Z,101412.47
2019-03-24T17:19:28.538Z,101426.16
2019-03-24T17:21:58.891Z,101413.80
2019-03-24T17:24:29.127Z,101414.73
2019-03-24T17:26:59.375Z,101391.38
2019-03-24T17:29:29.445Z,101402.55
2019-03-24T17:32:00.044Z,101395.38
2019-03-24T17:34:30.349Z,101395.38
2019-03-24T17:37:00.606Z,101394.05
2019-03-24T17:39:30.874Z,101385.52
2019-03-24T17:42:01.198Z,101366.95
2019-03-24T17:44:31.816Z,101356.30
2019-03-24T17:47:02.696Z,101353.80
2019-03-24T17:49:33.025Z,101335.89
2019-03-24T17:52:03.455Z,101335.89
2019-03-24T17:54:35.215Z,101330.77
2019-03-24T17:57:05.644Z,101332.77
2019-03-24T17:59:36.044Z,101327.46
2019-03-24T18:02:14.146Z,101327.46
2019-03-24T18:04:38.497Z,101317.84
2019-03-24T18:07:08.707Z,101306.02
2019-03-24T18:09:39.253Z,101306.02
2019-03-24T18:12:09.539Z,101305.65
2019-03-24T18:14:39.959Z,101289.90
2019-03-24T18:17:10.587Z,101291.20
2019-03-24T18:19:40.803Z,101291.20
2019-03-24T18:22:11.850Z,101280.87
2019-03-24T18:24:42.383Z,101280.87
2019-03-24T18:27:12.855Z,101274.16
2019-03-24T18:29:43.040Z,101274.16
2019-03-24T18:32:13.384Z,101276.05
2019-03-24T18:34:44.400Z,101270.81
2019-03-24T18:37:14.877Z,101261.73
2019-03-24T18:39:45.407Z,101261.84
2019-03-24T18:42:15.930Z,101271.88
2019-03-24T18:44:46.029Z,101255.30
2019-03-24T18:47:16.479Z,101256.61
2019-03-24T18:49:46.908Z,101264.92
2019-03-24T18:52:22.724Z,101261.64
2019-03-24T18:54:49.237Z,101245.54
2019-03-24T18:57:19.636Z,101243.51
2019-03-24T18:59:50.001Z,101243.51
2019-03-24T19:02:20.439Z,101242.13
2019-03-24T19:04:50.836Z,101236.77
2019-03-24T19:07:21.393Z,101236.77
2019-03-24T19:09:51.874Z,101226.38
2019-03-24T19:12:22.031Z,101049.23
2019-03-24T19:14:52.213Z,101049.23
2019-03-24T19:17:22.703Z,101225.91
2019-03-24T19:19:53.219Z,101210.03
2019-03-24T19:22:33.249Z,101210.03
2019-03-24T19:24:57.059Z,101188.98
2019-03-24T19:27:27.272Z,101188.98
2019-03-24T19:29:58.100Z,101197.72
2019-03-24T19:32:29.060Z,101184.09
2019-03-24T19:34:59.502Z,101182.91
2019-03-24T19:37:29.797Z,101182.91
2019-03-24T19:40:00.697Z,101177.23
2019-03-24T19:42:31.277Z,101163.95
2019-03-24T19:45:01.563Z,101172.76
2019-03-24T19:47:32.192Z,101165.75
2019-03-24T19:50:02.544Z,101150.59
2019-03-24T19:52:32.964Z,101147.36
2019-03-24T19:55:03.298Z,101141.66
2019-03-24T19:57:33.793Z,101141.66
2019-03-24T20:00:04.515Z,101125.55
2019-03-24T20:02:35.043Z,101124.27
2019-03-24T20:05:05.387Z,101120.47
2019-03-24T20:07:35.759Z,101113.78
2019-03-24T20:10:06.220Z,101097.29
2019-03-24T20:12:36.694Z,101097.29
2019-03-24T20:15:07.700Z,101101.28
2019-03-24T20:17:38.060Z,101091.32
2019-03-24T20:20:08.749Z,101107.13
2019-03-24T20:22:39.120Z,101087.87
2019-03-24T20:25:09.516Z,101087.87
2019-03-24T20:27:39.972Z,101069.63
2019-03-24T20:30:11.412Z,101067.08
2019-03-24T20:32:41.589Z,101070.19
2019-03-24T20:35:13.389Z,101070.19
2019-03-24T20:37:43.613Z,101068.33
2019-03-24T20:40:14.244Z,101059.27
2019-03-24T20:42:44.302Z,101054.02
2019-03-24T20:45:15.036Z,101054.02
2019-03-24T20:47:45.966Z,101046.55
2019-03-24T20:50:16.658Z,101044.81
2019-03-24T20:52:46.990Z,101026.11
2019-03-24T20:55:19.442Z,101033.71
2019-03-24T20:57:51.490Z,101033.71
2019-03-24T21:00:37.727Z,101029.31
2019-03-24T21:03:09.482Z,101029.31
2019-03-24T21:05:40.165Z,101010.48
2019-03-24T21:08:10.512Z,101016.53
2019-03-24T21:10:40.662Z,101007.86
2019-03-24T21:13:11.131Z,100999.20
2019-03-24T21:15:41.431Z,100994.88
2019-03-24T21:18:11.750Z,100988.27
2019-03-24T21:20:42.202Z,100989.57
2019-03-24T21:23:12.506Z,100984.17
2019-03-24T21:25:42.794Z,100984.17
2019-03-24T21:28:12.957Z,100969.02
2019-03-24T21:30:43.424Z,100971.59
2019-03-24T21:33:13.905Z,100963.44
2019-03-24T21:35:44.230Z,100964.33
2019-03-24T21:38:14.513Z,100964.33
2019-03-24T21:40:45.198Z,100953.03
2019-03-24T21:43:15.691Z,100957.38
2019-03-24T21:45:45.790Z,100945.56
2019-03-24T21:48:16.416Z,100945.56
2019-03-24T21:50:46.713Z,100944.72
2019-03-24T21:53:16.987Z,100932.97
2019-03-24T21:55:47.118Z,100924.59
2019-03-24T21:58:17.271Z,100924.59
2019-03-24T22:00:47.479Z,100916.39
2019-03-24T22:03:18.108Z,100916.39
2019-03-24T22:05:48.506Z,100902.80
2019-03-24T22:08:19.205Z,100905.94
2019-03-24T22:10:49.432Z,100891.26
2019-03-24T22:13:19.861Z,100891.26
2019-03-24T22:15:50.254Z,100893.88
2019-03-24T22:18:20.676Z,100883.42
2019-03-24T22:20:50.807Z,100876.50
2019-03-24T22:23:21.347Z,100876.50
2019-03-24T22:25:51.771Z,100869.08
2019-03-24T22:28:22.111Z,100872.07
2019-03-24T22:30:52.545Z,100859.88
2019-03-24T22:33:22.896Z,100859.88
2019-03-24T22:35:53.003Z,100854.28
2019-03-24T22:38:23.250Z,100852.52
2019-03-24T22:40:53.603Z,100837.35
2019-03-24T22:43:24.027Z,100838.66
2019-03-24T22:45:54.163Z,100842.16
2019-03-24T22:48:24.775Z,100828.16
2019-03-24T22:50:55.014Z,100821.61
2019-03-24T22:53:25.328Z,100823.38
2019-03-24T22:55:55.561Z,100823.38
2019-03-24T22:58:25.854Z,100815.87
2019-03-24T23:00:56.899Z,100812.83
2019-03-24T23:03:27.838Z,100812.83
2019-03-24T23:05:58.085Z,100808.45
2019-03-24T23:08:28.361Z,100817.17
2019-03-24T23:10:58.603Z,100801.54
2019-03-24T23:13:29.199Z,100801.54
2019-03-24T23:15:59.621Z,100795.42
2019-03-24T23:18:29.956Z,100775.86
2019-03-24T23:21:00.119Z,100775.86
2019-03-24T23:23:30.338Z,100771.94
2019-03-24T23:26:00.740Z,100759.72
2019-03-24T23:28:31.243Z,100759.72
2019-03-24T23:31:01.505Z,100751.78
2019-03-24T23:33:31.911Z,100744.03
2019-03-24T23:36:02.608Z,100739.64
2019-03-24T23:38:32.915Z,100739.64
2019-03-24T23:41:03.311Z,100735.77
2019-03-24T23:43:33.667Z,100731.01
2019-03-24T23:46:04.205Z,100722.65
2019-03-24T23:48:34.958Z,100721.80
2019-03-24T23:51:05.197Z,100721.80
2019-03-24T23:53:35.504Z,100715.23
2019-03-24T23:56:06.636Z,100715.70
2019-03-24T23:58:41.088Z,100705.62
